createdAt,value
2023-01-02T00:00:07.834Z,4.07
2023-01-02T00:02:40.925Z,4.45
2023-01-02T00:05:10.308Z,4.70
2023-01-02T00:07:40.179Z,5.03
2023-01-02T00:10:09.258Z,5.43
2023-01-02T00:12:38.031Z,5.18
2023-01-02T00:15:07.638Z,5.28
2023-01-02T00:17:36.435Z,5.20
2023-01-02T00:20:06.742Z,4.65
2023-01-02T00:22:36.651Z,5.00
2023-01-02T00:25:05.881Z,4.57
2023-01-02T00:27:36.258Z,4.68
2023-01-02T00:30:06.080Z,4.53
2023-01-02T00:32:35.484Z,5.37
2023-01-02T00:35:04.412Z,4.88
2023-01-02T00:37:33.678Z,5.53
2023-01-02T00:40:02.383Z,5.78
2023-01-02T00:42:32.106Z,5.35
2023-01-02T00:45:01.577Z,5.18
2023-01-02T00:47:30.242Z,5.30
2023-01-02T00:49:59.253Z,5.75
2023-01-02T00:52:27.890Z,5.65
2023-01-02T00:54:56.664Z,5.40
2023-01-02T00:57:25.598Z,5.95
2023-01-02T00:59:54.711Z,5.57
2023-01-02T01:02:23.877Z,5.93
2023-01-02T01:04:53.498Z,5.93
2023-01-02T01:07:22.239Z,5.43
2023-01-02T01:09:51.133Z,5.82
2023-01-02T01:12:20.260Z,6.03
2023-01-02T01:14:49.311Z,5.07
2023-01-02T01:17:17.961Z,5.32
2023-01-02T01:19:47.019Z,5.13
2023-01-02T01:22:15.723Z,5.28
2023-01-02T01:24:44.656Z,5.35
2023-01-02T01:27:13.503Z,5.22
2023-01-02T01:29:42.356Z,5.43
2023-01-02T01:32:11.002Z,5.35
2023-01-02T01:34:40.066Z,5.28
2023-01-02T01:37:08.912Z,5.45
2023-01-02T01:39:37.953Z,5.30
2023-01-02T01:42:07.133Z,5.80
2023-01-02T01:44:50.964Z,5.78
2023-01-02T01:47:53.914Z,5.30
2023-01-02T01:50:33.534Z,5.63
2023-01-02T01:53:16.955Z,5.47
2023-01-02T01:55:55.135Z,5.28
2023-01-02T01:58:45.611Z,5.03
2023-01-02T02:01:17.258Z,5.43
2023-01-02T02:03:49.759Z,5.03
2023-01-02T02:06:21.072Z,5.20
2023-01-02T02:09:03.871Z,4.80
2023-01-02T02:11:33.815Z,5.07
2023-01-02T02:14:02.765Z,5.50
2023-01-02T02:16:51.899Z,5.17
2023-01-02T02:19:50.903Z,5.30
2023-01-02T02:22:36.278Z,5.60
2023-01-02T02:25:16.519Z,5.53
2023-01-02T02:28:25.795Z,5.20
2023-01-02T02:31:24.363Z,4.95
2023-01-02T02:34:14.775Z,4.90
2023-01-02T02:37:01.962Z,4.97
2023-01-02T02:39:40.222Z,5.20
2023-01-02T02:42:53.207Z,5.07
2023-01-02T02:45:51.481Z,5.45
2023-01-02T02:48:42.997Z,5.78
2023-01-02T02:51:28.042Z,5.47
2023-01-02T02:54:05.004Z,4.85
2023-01-02T02:56:35.293Z,4.93
2023-01-02T02:59:05.295Z,4.93
2023-01-02T03:01:34.235Z,4.72
2023-01-02T03:04:03.330Z,5.30
2023-01-02T03:06:43.851Z,5.47
2023-01-02T03:09:49.673Z,4.85
2023-01-02T03:13:02.738Z,4.40
2023-01-02T03:15:43.700Z,4.68
2023-01-02T03:18:35.684Z,5.18
2023-01-02T03:21:13.842Z,4.78
2023-01-02T03:23:49.795Z,5.03
2023-01-02T03:26:26.707Z,4.85
2023-01-02T03:29:00.361Z,4.78
2023-01-02T03:31:33.801Z,5.03
2023-01-02T04:55:59.467Z,4.50
2023-01-02T04:58:29.417Z,4.88
2023-01-02T05:00:58.086Z,4.47
2023-01-02T05:03:27.495Z,4.72
2023-01-02T05:06:03.336Z,4.70
2023-01-02T05:08:32.911Z,5.47
2023-01-02T05:11:22.186Z,5.40
2023-01-02T05:13:52.736Z,4.82
2023-01-02T05:16:21.649Z,4.90
2023-01-02T05:18:50.556Z,5.10
2023-01-02T05:21:38.283Z,5.10
2023-01-02T05:24:07.578Z,4.95
2023-01-02T05:26:37.499Z,5.57
2023-01-02T05:29:06.759Z,5.88
2023-01-02T05:31:35.532Z,5.70
2023-01-02T05:34:07.050Z,7.20
2023-01-02T05:36:36.043Z,6.88
2023-01-02T05:39:10.101Z,7.40
2023-01-02T05:41:40.581Z,6.93
2023-01-02T05:44:12.102Z,6.23
2023-01-02T05:46:41.526Z,5.35
2023-01-02T05:49:11.770Z,5.18
2023-01-02T05:51:40.592Z,5.65
2023-01-02T05:54:09.944Z,4.72
2023-01-02T05:56:38.832Z,4.72
2023-01-02T05:59:10.394Z,4.90
2023-01-02T06:01:39.984Z,4.28
2023-01-02T06:04:08.801Z,5.18
2023-01-02T06:06:41.061Z,4.95
2023-01-02T06:09:13.842Z,5.80
2023-01-02T06:11:42.874Z,6.20
2023-01-02T06:14:12.346Z,5.63
2023-01-02T06:16:41.617Z,5.43
2023-01-02T06:19:10.715Z,5.43
2023-01-02T06:21:40.271Z,5.80
2023-01-02T06:24:09.153Z,6.00
2023-01-02T06:26:38.137Z,6.10
2023-01-02T06:29:07.034Z,5.22
2023-01-02T06:31:39.086Z,6.57
2023-01-02T06:34:08.924Z,5.25
2023-01-02T06:36:37.604Z,6.47
2023-01-02T06:39:06.507Z,5.80
2023-01-02T06:41:35.803Z,4.97
2023-01-02T06:44:04.695Z,6.50
2023-01-02T06:46:33.786Z,5.78
2023-01-02T06:49:02.847Z,5.82
2023-01-02T06:51:32.108Z,5.57
2023-01-02T06:54:00.940Z,6.90
2023-01-02T06:56:30.748Z,6.50
2023-01-02T06:59:00.449Z,6.57
2023-01-02T07:01:30.929Z,6.60
2023-01-02T07:04:00.874Z,6.57
2023-01-02T07:06:29.687Z,6.95
2023-01-02T07:08:58.794Z,6.65
2023-01-02T07:11:27.923Z,5.90
2023-01-02T07:13:57.603Z,7.82
2023-01-02T07:16:26.878Z,7.00
2023-01-02T07:18:55.795Z,5.65
2023-01-02T07:21:25.502Z,6.18
2023-01-02T07:23:54.606Z,6.75
2023-01-02T07:26:23.393Z,7.30
2023-01-02T07:28:52.595Z,6.50
2023-01-02T07:31:24.162Z,6.93
2023-01-02T07:33:54.041Z,6.50
2023-01-02T07:36:26.128Z,5.45
2023-01-02T07:38:58.130Z,5.07
2023-01-02T07:41:27.849Z,6.10
2023-01-02T07:43:57.798Z,6.30
2023-01-02T07:46:27.668Z,6.32
2023-01-02T07:48:56.613Z,6.05
2023-01-02T07:51:27.567Z,6.03
2023-01-02T07:54:00.109Z,8.98
2023-01-02T07:56:29.623Z,5.90
2023-01-02T07:58:58.513Z,10.10
2023-01-02T08:01:27.641Z,6.43
2023-01-02T08:03:57.416Z,7.40
2023-01-02T08:06:26.345Z,6.20
2023-01-02T08:08:55.803Z,11.83
2023-01-02T08:11:25.112Z,7.65
2023-01-02T08:13:53.887Z,6.67
2023-01-02T08:16:24.041Z,7.00
2023-01-02T08:18:57.015Z,8.85
2023-01-02T08:21:27.398Z,12.77
2023-01-02T08:23:56.329Z,13.70
2023-01-02T08:26:26.284Z,11.85
2023-01-02T08:28:55.867Z,13.40
2023-01-02T08:31:24.613Z,13.35
2023-01-02T08:33:53.537Z,13.13
2023-01-02T08:36:22.638Z,13.57
2023-01-02T08:38:51.708Z,12.27
2023-01-02T08:41:39.066Z,12.20
2023-01-02T08:44:08.890Z,11.90
2023-01-02T08:46:42.544Z,12.13
2023-01-02T08:49:13.571Z,10.85
2023-01-02T08:51:42.469Z,10.63
2023-01-02T08:54:11.099Z,10.00
2023-01-02T08:56:40.585Z,9.53
2023-01-02T08:59:11.411Z,12.32
2023-01-02T09:01:41.378Z,11.52
2023-01-02T09:04:13.318Z,11.95
2023-01-02T09:06:44.428Z,9.70
2023-01-02T09:09:15.908Z,12.10
2023-01-02T09:11:49.913Z,11.50
2023-01-02T09:14:21.385Z,10.32
2023-01-02T09:16:52.181Z,9.10
2023-01-02T09:19:21.784Z,9.25
2023-01-02T09:21:50.802Z,11.38
2023-01-02T09:24:21.849Z,12.38
2023-01-02T09:26:51.388Z,12.38
2023-01-02T09:29:21.468Z,11.45
2023-01-02T09:31:50.425Z,12.30
2023-01-02T09:34:19.104Z,12.80
2023-01-02T09:36:49.168Z,12.20
2023-01-02T09:39:18.192Z,10.75
2023-01-02T09:41:56.607Z,10.68
2023-01-02T09:44:43.068Z,10.07
2023-01-02T09:47:12.134Z,11.13
2023-01-02T09:49:56.984Z,11.20
2023-01-02T09:52:34.072Z,11.15
2023-01-02T09:55:04.157Z,11.50
2023-01-02T09:57:33.944Z,11.38
2023-01-02T10:00:02.707Z,11.50
2023-01-02T10:03:13.491Z,11.30
2023-01-02T10:05:42.523Z,11.05
2023-01-02T10:08:20.635Z,12.63
2023-01-02T10:11:18.456Z,12.98
2023-01-02T10:14:27.979Z,11.70
2023-01-02T10:17:00.465Z,11.63
2023-01-02T10:19:43.865Z,12.55
2023-01-02T10:22:20.124Z,13.27
2023-01-02T10:25:16.819Z,13.77
2023-01-02T10:27:54.598Z,13.43
2023-01-02T10:30:27.703Z,13.13
2023-01-02T10:33:17.563Z,13.40
2023-01-02T10:35:56.021Z,12.15
2023-01-02T10:38:25.466Z,13.10
2023-01-02T10:40:54.080Z,13.02
2023-01-02T10:43:23.159Z,13.43
2023-01-02T10:45:52.115Z,14.15
2023-01-02T10:48:23.677Z,14.43
2023-01-02T10:50:58.087Z,14.95
2023-01-02T10:53:40.967Z,19.83
2023-01-02T10:56:16.143Z,14.80
2023-01-02T10:58:51.153Z,14.60
2023-01-02T11:01:22.850Z,15.30
2023-01-02T11:04:00.672Z,17.15
2023-01-02T11:06:39.339Z,17.60
2023-01-02T11:09:25.621Z,19.10
2023-01-02T11:11:57.491Z,15.53
2023-01-02T11:14:33.650Z,18.77
2023-01-02T11:17:22.072Z,21.02
2023-01-02T11:19:57.942Z,19.75
2023-01-02T11:22:38.588Z,19.75
2023-01-02T11:25:18.922Z,19.50
2023-01-02T11:27:48.039Z,19.55
2023-01-02T11:30:26.127Z,19.80
2023-01-02T11:33:20.828Z,19.65
2023-01-02T11:35:54.174Z,19.43
2023-01-02T11:38:30.837Z,20.35
2023-01-02T11:41:04.420Z,20.73
2023-01-02T11:43:50.777Z,21.27
2023-01-02T11:46:25.372Z,21.58
2023-01-02T11:49:01.253Z,22.33
2023-01-02T11:51:33.101Z,21.42
2023-01-02T11:54:06.187Z,23.30
2023-01-02T11:56:43.201Z,22.33
2023-01-02T11:59:34.650Z,22.25
2023-01-02T12:02:31.180Z,28.60
2023-01-02T12:05:00.189Z,27.65
2023-01-02T12:07:44.203Z,27.40
2023-01-02T12:10:26.535Z,25.70
2023-01-02T12:13:10.179Z,31.88
2023-01-02T12:16:27.929Z,27.90
2023-01-02T12:19:12.181Z,37.67
2023-01-02T12:22:16.112Z,26.83
2023-01-02T12:25:04.342Z,29.90
2023-01-02T12:28:08.009Z,29.17
2023-01-02T12:30:48.564Z,27.58
2023-01-02T12:33:32.260Z,26.08
2023-01-02T12:36:04.986Z,26.00
2023-01-02T12:38:42.779Z,25.52
2023-01-02T12:41:24.529Z,25.13
2023-01-02T12:44:11.825Z,26.30
2023-01-02T12:46:49.784Z,27.67
2023-01-02T12:49:57.415Z,34.47
2023-01-02T12:53:02.610Z,32.17
2023-01-02T12:55:56.358Z,31.05
2023-01-02T12:59:02.823Z,32.15
2023-01-02T13:02:04.145Z,37.42
2023-01-02T13:04:46.682Z,45.67
2023-01-02T13:07:40.355Z,48.80
2023-01-02T13:10:18.068Z,64.63
2023-01-02T13:12:48.321Z,40.23
2023-01-02T13:15:25.313Z,29.20
2023-01-02T13:18:07.930Z,28.67
2023-01-02T13:20:54.639Z,27.63
2023-01-02T13:23:42.145Z,26.40
2023-01-02T13:26:22.187Z,32.75
2023-01-02T13:29:00.986Z,21.33
2023-01-02T13:31:46.832Z,21.55
2023-01-02T13:34:22.527Z,25.42
2023-01-02T13:37:16.068Z,20.63
2023-01-02T13:39:48.248Z,19.77
2023-01-02T13:42:51.434Z,16.85
2023-01-02T13:45:52.468Z,14.25
2023-01-02T13:48:40.765Z,13.80
2023-01-02T13:51:16.687Z,14.53
2023-01-02T13:53:51.379Z,15.70
2023-01-02T13:56:27.340Z,13.50
2023-01-02T13:58:59.505Z,11.85
2023-01-02T14:01:40.805Z,11.38
2023-01-02T14:04:09.959Z,10.95
2023-01-02T14:06:41.651Z,11.57
2023-01-02T14:09:11.198Z,11.43
2023-01-02T14:11:55.339Z,11.20
2023-01-02T14:14:34.401Z,11.02
2023-01-02T14:17:26.332Z,10.83
2023-01-02T14:20:19.912Z,10.43
2023-01-02T14:23:04.510Z,10.48
2023-01-02T14:25:45.661Z,13.88
2023-01-02T14:28:25.180Z,13.85
2023-01-02T14:30:55.455Z,12.35
2023-01-02T14:33:36.274Z,11.93
2023-01-02T14:36:12.776Z,10.88
2023-01-02T14:38:56.058Z,10.35
2023-01-02T14:42:11.472Z,10.38
2023-01-02T14:45:04.547Z,10.68
2023-01-02T14:47:36.464Z,14.73
2023-01-02T14:50:12.030Z,11.73
2023-01-02T14:52:51.604Z,10.73
2023-01-02T14:55:25.637Z,10.23
2023-01-02T14:57:56.021Z,9.88
2023-01-02T15:00:29.692Z,10.63
2023-01-02T15:03:32.821Z,11.20
2023-01-02T15:06:10.537Z,10.55
2023-01-02T15:08:50.605Z,9.85
2023-01-02T15:11:43.348Z,9.90
2023-01-02T15:14:23.622Z,10.05
2023-01-02T15:16:57.572Z,9.65
2023-01-02T15:19:33.593Z,9.32
2023-01-02T15:22:11.952Z,9.90
2023-01-02T15:24:41.531Z,9.13
2023-01-02T15:27:34.869Z,10.30
2023-01-02T15:30:23.863Z,9.30
2023-01-02T15:32:52.802Z,9.25
2023-01-02T15:35:28.967Z,9.32
2023-01-02T15:37:58.157Z,8.38
2023-01-02T15:40:28.946Z,8.15
2023-01-02T15:43:22.756Z,7.80
2023-01-02T15:45:53.732Z,8.45
2023-01-02T15:48:36.408Z,8.25
2023-01-02T15:51:06.442Z,8.23
2023-01-02T15:53:40.410Z,7.55
2023-01-02T15:56:14.985Z,7.80
2023-01-02T15:58:51.365Z,9.02
2023-01-02T16:01:22.796Z,8.20
2023-01-02T16:04:01.199Z,9.38
2023-01-02T16:06:36.767Z,10.30
2023-01-02T16:09:08.326Z,10.35
2023-01-02T16:11:46.380Z,11.70
2023-01-02T16:14:22.417Z,11.80
2023-01-02T16:17:05.828Z,12.38
2023-01-02T16:19:48.098Z,11.68
2023-01-02T16:22:46.534Z,12.73
2023-01-02T16:25:24.222Z,13.07
2023-01-02T16:28:34.594Z,12.85
2023-01-02T16:31:13.684Z,12.93
2023-01-02T16:33:43.975Z,12.63
2023-01-02T16:36:25.359Z,12.37
2023-01-02T16:39:00.578Z,11.40
2023-01-02T16:41:37.444Z,11.07
2023-01-02T16:44:17.848Z,11.97
2023-01-02T16:46:51.758Z,10.35
2023-01-02T16:49:24.207Z,11.48
2023-01-02T16:51:55.493Z,10.57
2023-01-02T16:54:25.103Z,10.20
2023-01-02T16:56:54.975Z,10.55
2023-01-02T16:59:23.560Z,9.80
2023-01-02T17:01:53.220Z,9.30
2023-01-02T17:04:23.232Z,9.00
2023-01-02T17:06:51.952Z,8.43
2023-01-02T17:09:20.743Z,8.85
2023-01-02T17:12:02.623Z,10.35
2023-01-02T17:14:33.983Z,9.93
2023-01-02T17:17:02.951Z,9.40
2023-01-02T17:19:31.691Z,10.60
2023-01-02T17:22:00.908Z,9.05
2023-01-02T17:24:29.646Z,8.95
2023-01-02T17:26:58.579Z,9.40
2023-01-02T17:29:29.874Z,9.32
2023-01-02T17:31:58.717Z,11.07
2023-01-02T17:34:27.619Z,10.65
2023-01-02T17:36:57.952Z,11.13
2023-01-02T17:39:27.414Z,10.57
2023-01-02T17:41:56.236Z,10.05
2023-01-02T17:44:25.154Z,10.82
2023-01-02T17:49:43.944Z,10.60
2023-01-02T17:52:16.171Z,12.43
2023-01-02T17:54:49.860Z,12.95
2023-01-02T17:57:23.931Z,13.30
2023-01-02T17:59:52.831Z,10.35
2023-01-02T18:02:22.451Z,10.65
2023-01-02T18:04:55.199Z,9.73
2023-01-02T18:07:25.308Z,9.80
2023-01-02T18:10:08.519Z,10.13
2023-01-02T18:12:39.973Z,9.13
2023-01-02T18:15:14.745Z,9.82
2023-01-02T18:17:43.942Z,9.55
2023-01-02T18:20:15.373Z,9.80
2023-01-02T18:22:49.603Z,10.48
2023-01-02T18:25:25.140Z,10.30
2023-01-02T18:28:04.059Z,11.10
2023-01-02T18:30:33.217Z,9.65
2023-01-02T18:33:16.616Z,9.45
2023-01-02T18:35:57.374Z,10.02
2023-01-02T18:38:36.996Z,9.90
2023-01-02T18:41:18.203Z,10.02
2023-01-02T18:43:48.164Z,10.35
2023-01-02T18:46:20.134Z,9.48
2023-01-02T18:48:49.589Z,9.52
2023-01-02T18:51:20.823Z,9.60
2023-01-02T18:53:54.661Z,9.20
2023-01-02T18:56:31.825Z,7.80
2023-01-02T18:59:13.806Z,7.95
2023-01-02T19:01:51.396Z,8.30
2023-01-02T19:04:28.277Z,8.63
2023-01-02T19:07:00.780Z,7.72
2023-01-02T19:09:36.409Z,8.05
2023-01-02T19:12:33.018Z,7.67
2023-01-02T19:15:23.055Z,8.88
2023-01-02T19:17:52.020Z,12.48
2023-01-02T19:20:22.181Z,8.77
2023-01-02T19:22:51.621Z,8.55
2023-01-02T19:25:24.126Z,8.82
2023-01-02T19:27:56.000Z,8.35
2023-01-02T19:30:36.637Z,9.40
2023-01-02T19:33:33.162Z,9.23
2023-01-02T19:36:04.061Z,9.05
2023-01-02T19:38:35.464Z,9.68
2023-01-02T19:41:05.022Z,9.63
2023-01-02T19:43:35.772Z,10.07
2023-01-02T19:46:05.841Z,10.43
2023-01-02T19:48:35.279Z,10.02
2023-01-02T19:51:05.892Z,9.52
2023-01-02T19:53:34.723Z,9.77
2023-01-02T19:56:03.741Z,10.43
2023-01-02T19:58:32.941Z,10.13
2023-01-02T20:01:01.686Z,11.82
2023-01-02T20:03:31.041Z,12.65
2023-01-02T20:05:59.825Z,13.52
2023-01-02T20:08:29.013Z,12.83
2023-01-02T20:10:57.699Z,10.90
2023-01-02T20:13:26.820Z,10.60
2023-01-02T20:15:55.808Z,9.63
2023-01-02T20:18:24.675Z,8.73
2023-01-02T20:20:53.310Z,8.60
2023-01-02T20:23:22.421Z,7.95
2023-01-02T20:25:51.054Z,7.50
2023-01-02T20:28:19.975Z,7.85
2023-01-02T20:30:48.742Z,7.18
2023-01-02T20:33:17.526Z,8.07
2023-01-02T20:35:47.015Z,7.32
2023-01-02T20:38:16.201Z,7.57
2023-01-02T20:40:44.775Z,7.22
2023-01-02T20:43:13.962Z,7.50
2023-01-02T20:45:42.545Z,7.60
2023-01-02T20:48:11.597Z,7.78
2023-01-02T20:50:40.318Z,7.80
2023-01-02T20:53:09.224Z,7.47
2023-01-02T20:55:39.936Z,18.67
2023-01-02T20:58:08.988Z,45.13
2023-01-02T21:00:37.761Z,47.75
2023-01-02T21:03:07.546Z,16.60
2023-01-02T21:05:37.390Z,10.03
2023-01-02T21:08:09.893Z,13.10
2023-01-02T21:10:38.974Z,8.05
2023-01-02T21:13:13.517Z,7.95
2023-01-02T21:15:55.854Z,8.27
2023-01-02T21:18:33.721Z,6.97
2023-01-02T21:21:09.439Z,6.70
2023-01-02T21:23:40.306Z,6.05
2023-01-02T21:26:11.863Z,5.60
2023-01-02T21:28:40.963Z,6.75
2023-01-02T21:31:09.618Z,6.15
2023-01-02T21:33:38.561Z,6.47
2023-01-02T21:36:08.909Z,6.53
2023-01-02T21:38:38.353Z,6.97
2023-01-02T21:41:25.659Z,6.88
2023-01-02T21:43:55.102Z,6.72
2023-01-02T21:46:23.919Z,7.27
2023-01-02T21:48:52.842Z,7.72
2023-01-02T21:51:22.894Z,6.97
2023-01-02T21:53:53.254Z,7.90
2023-01-02T21:56:21.959Z,7.75
2023-01-02T21:58:51.092Z,8.70
2023-01-02T22:01:19.881Z,9.57
2023-01-02T22:03:49.075Z,10.35
2023-01-02T22:06:19.078Z,10.25
2023-01-02T22:08:48.166Z,9.30
2023-01-02T22:11:35.114Z,7.97
2023-01-02T22:14:03.947Z,5.47
2023-01-02T22:16:32.711Z,5.15
2023-01-02T22:19:01.658Z,4.95
2023-01-02T22:21:32.214Z,4.70
2023-01-02T22:24:01.167Z,4.28
2023-01-02T22:26:30.463Z,4.68
2023-01-02T22:29:00.151Z,4.53
2023-01-02T22:31:29.537Z,4.50
2023-01-02T22:33:59.920Z,4.30
2023-01-02T22:36:32.194Z,4.32
2023-01-02T22:39:27.612Z,4.75
2023-01-02T22:42:57.745Z,4.27
2023-01-02T22:45:12.848Z,4.45
2023-01-02T22:47:41.762Z,4.55
2023-01-02T22:50:20.399Z,3.90
2023-01-02T22:52:51.508Z,4.60
2023-01-02T22:55:23.232Z,4.22
2023-01-02T22:57:53.113Z,4.10
2023-01-02T23:00:24.283Z,4.43
2023-01-02T23:02:53.383Z,4.65
2023-01-02T23:05:22.667Z,3.97
2023-01-02T23:07:52.243Z,4.07
2023-01-02T23:10:21.235Z,4.32
2023-01-02T23:12:50.048Z,4.18
2023-01-02T23:15:19.471Z,4.40
2023-01-02T23:18:06.585Z,4.15
2023-01-02T23:20:35.561Z,4.53
2023-01-02T23:23:04.328Z,4.13
2023-01-02T23:25:33.083Z,3.73
2023-01-02T23:28:01.783Z,3.97
2023-01-02T23:30:30.982Z,4.15
2023-01-02T23:32:59.559Z,3.90
2023-01-02T23:35:28.472Z,3.63
2023-01-02T23:37:57.405Z,3.83
2023-01-02T23:40:29.379Z,3.70
2023-01-02T23:43:03.149Z,3.60
2023-01-02T23:45:31.851Z,3.63
2023-01-02T23:48:00.753Z,3.63
2023-01-02T23:50:29.544Z,3.85
2023-01-02T23:52:58.924Z,3.35
2023-01-02T23:55:27.585Z,3.33
2023-01-02T23:57:56.752Z,3.28
